Accueil
METAR-TAF:

METAR-TAF

Aéroports :

Memmingen, Allemagne

latitude: 47-59-33N, longitude: 10-14-37E, altitude: 633 m

Observation

Le bulletin a été fait il y a 25 minutes, à 22:50 UTC
Vent 3 kt de sud
Température 0°C
Humidité 100%
Pression 1020 hPa
Visibilité 10 km ou plus

METAR: EDJA 252250Z AUTO 17003KT 9999 // OVC097/// 00/00 Q1020

Heure: 00:15 (23:15 UTC)

Prévision

Le bulletin a été fait il y a 6 heures et 15 minutes, à 17:00 UTC
Prévision valable du 25 à 18 UTC au 26 à 03 UTC
Vent 3 kt de direction variable
Visibilité: 8000 m
Evoluant progressivement
du 25 à 20 UTC au 25 à 23 UTC
Visibilité: 3000 m
brume
Probabilité 30% :
Temporairement
du 25 à 23 UTC au 26 à 03 UTC
Visibilité: 0500 m
à une hauteur de 100 ft
brouillard givrant

TAF: EDJA 251700Z 2518/2603 VRB03KT 8000 NSC BECMG 2520/2523 3000 BR PROB30 TEMPO 2523/2603 0500 FZFG VV001

Observations et prévisions météorologiques de plus de 4000 aéroports (messages METAR et TAF).

Les stations disponibles sont représentées par des disques jaunes et rouges sur la carte.

Passer la souris dessus pour voir le nom de la station.

Cliquer dessus pour voir les observations et prévisions météorologiques.

Pour changer de carte: cliquez sur les boutons verts avec une croix noire pour zoomer, sur le bouton vert avec un tiret pour effectuer un zoom arrière, ou sur les flèches vertes pour les cartes adjacentes.


METAR-TAF: